Airfield :
LOGIN :

Register | Disclaimer

   EN    FR    IT 

 










Legend :    VFR   Marginal VFR   IFR   Intensive IFR   Very Intensive IFR
Visi :
Ceiling :
>= 8 km
>= 3000ft
5 to 8 km
1000 to 3000 ft
1500m to 5 km
500 to 1000 ft
800 to 1500m
200 to 500 ft
< 800m
< 200 ft
Symbols :   Thunderstorms  Fog  Heavy snow  Heavy precipitations  Wind > 20 kt
SIGMETs :     Misc.  Thunderstorms  Icing  Turbulence  Mountain Waves  Volcanic Ashes






- Airport Elevation : 32 ft
- IATA code : LKZ


EGUL - RAF Lakenheath

CURRENT METAR :
  • 052156Z AUTO 16007KT 9999 FEW013 FEW033 SCT055 16/15 A2944 RMK AO2 RAE29RAB29E29 SLP973 P0000 T01630153 $

EXPIRED METARs :
  • 052129Z AUTO 16006KT 9999 FEW007 SCT012 SCT027 16/15 A2945 RMK AO2 RAE29RAB29 SLP976 $
  • 052121Z AUTO 14008KT 9999 -RA SCT008 BKN026 16/16 A2945 RMK AO2 CIG 009V026 CIG 009 RWY06 SLP976 $
  • 052111Z AUTO 14008KT 9999 -RA SCT007 BKN011 OVC028 16/15 A2945 RMK AO2 CIG 007V012 BKN V OVC CIG 009 RWY06 SLP976 $
  • 052056Z AUTO 14010KT 8000 -RA BR BKN007 OVC012 16/15 A2946 RMK AO2 SLP979 P0006 60012 T01600154 57018 $
  • 051956Z 12009KT 6000 -RA BR FEW007 OVC018 16/15 A2948 RMK AO2A CIG 013 RWY06 SLP986 P0001 T01590151 $

TAF TAF EGUL
Valid from the 05 at 21:00 until the 07 at 03:00 UTC


052100Z 0521/0703 15012G18KT 6000 -SHRA SCT007 BKN016 QNH2943INS
TEMPO 0521/0524 16010G20KT 4800 -TSRA BKN007 OVC016CB
BECMG 0523/0524 18010G15KT 8000 -SHRA OVC010 QNH2939INS
BECMG 0607/0608 21012G20KT 9999 NSW FEW010 BKN015 OVC025 QNH2940INS
BECMG 0610/0611 22015G25KT 8000 -SHRA BKN025 510003 QNH2942INS
TEMPO 0611/0618 23020G30KT 5000 -TSRA FEW020 BKN025CB
BECMG 0621/0622 20012G18KT 9999 NSW BKN030 QNH2948INS TX22/0614Z TN15/0604Z LAST NO AMDS AFT 0521 NEXT 0605



MET'MAP, your aeronautical weather chart ! - Copyright ORBIFLY December 2007 - Disclaimer

ORBIFLY MET'MAP TEAM :

Programming & Development : Alexandra Zaïnal
Concept & original design : Baudouin d'Aumeries
Assistance for programming : Marc-Olivier Méhu
Technical & hardware support : Manuel Goepfert

Contact : metmap@orbifly.com




SOURCES & CREDITS :

   NOAA